Time;durP1;ratioP1;P1;durP2;ratioP2;P2;SDS_P1;SDS_P2;PMS_P1;PMS_P2;Temp;Humidity;BMP_temperature;BMP_pressure;BME280_temperature;BME280_humidity;BME280_pressure;Samples;Min_cycle;Max_cycle;Signal;HPM_P1;HPM_P2
2023/06/17 00:01:30;;;;;;;9.85;8.82;;;;;;;16.77;100.00;100579.69;6236254;28;20038;-88
2023/06/17 00:04:31;;;;;;;10.82;8.40;;;;;;;16.72;100.00;100576.72;6233257;28;20091;-88
2023/06/17 00:07:33;;;;;;;13.05;8.77;;;;;;;16.70;100.00;100587.34;6234499;28;20040;-87
2023/06/17 00:10:35;;;;;;;9.38;8.45;;;;;;;16.65;100.00;100589.63;6243234;28;20049;-87
2023/06/17 00:13:38;;;;;;;11.63;8.80;;;;;;;16.63;100.00;100581.13;6246961;28;20045;-87
2023/06/17 00:16:43;;;;;;;10.90;8.55;;;;;;;16.55;100.00;100579.31;6238385;28;20041;-87
2023/06/17 00:19:45;;;;;;;9.85;7.88;;;;;;;16.49;100.00;100579.91;6237882;28;20048;-87
2023/06/17 00:22:47;;;;;;;10.13;7.88;;;;;;;16.43;100.00;100575.34;6238660;28;20041;-87
2023/06/17 00:25:49;;;;;;;10.48;8.20;;;;;;;16.41;100.00;100568.63;6238942;28;20045;-87
2023/06/17 00:28:51;;;;;;;10.13;8.23;;;;;;;16.38;100.00;100577.59;6246942;28;20152;-87
2023/06/17 00:31:52;;;;;;;12.38;7.82;;;;;;;16.35;100.00;100568.28;6236557;28;20052;-87
2023/06/17 00:34:54;;;;;;;10.65;8.65;;;;;;;16.30;100.00;100569.75;6238069;28;20076;-87
2023/06/17 00:37:56;;;;;;;11.25;7.07;;;;;;;16.27;100.00;100564.81;6230046;28;20570;-87
2023/06/17 00:40:58;;;;;;;8.93;7.18;;;;;;;16.23;100.00;100561.72;6227515;28;20048;-87
2023/06/17 00:44:00;;;;;;;7.60;6.88;;;;;;;16.19;100.00;100560.38;6233094;28;20570;-87
2023/06/17 00:47:01;;;;;;;8.48;7.50;;;;;;;16.10;100.00;100559.53;6236578;28;20123;-87
2023/06/17 00:50:07;;;;;;;11.85;8.48;;;;;;;16.08;100.00;100556.25;6239650;28;20037;-87
2023/06/17 00:53:10;;;;;;;9.43;8.00;;;;;;;16.05;100.00;100555.72;6231502;28;20045;-87
2023/06/17 00:56:13;;;;;;;10.30;7.90;;;;;;;15.99;100.00;100546.75;6236805;28;20048;-87
2023/06/17 00:59:14;;;;;;;9.90;6.93;;;;;;;15.94;100.00;100554.22;6237998;28;20045;-87
2023/06/17 01:02:17;;;;;;;9.07;7.50;;;;;;;15.90;100.00;100542.47;6233866;28;20069;-87
2023/06/17 01:05:19;;;;;;;12.23;7.55;;;;;;;15.85;100.00;100542.94;6240063;28;20336;-87
2023/06/17 01:08:34;;;;;;;9.63;7.80;;;;;;;15.83;100.00;100544.88;6237668;28;20037;-87
2023/06/17 01:11:38;;;;;;;8.85;7.93;;;;;;;15.78;100.00;100544.53;6245386;28;20041;-87
2023/06/17 01:14:42;;;;;;;9.23;7.15;;;;;;;15.73;100.00;100535.53;6237766;28;20538;-87
2023/06/17 01:17:46;;;;;;;9.68;7.65;;;;;;;15.74;100.00;100534.53;6237268;28;20033;-87
2023/06/17 01:20:53;;;;;;;8.45;7.65;;;;;;;15.74;100.00;100540.56;6236313;28;20050;-87
2023/06/17 01:23:58;;;;;;;9.75;7.65;;;;;;;15.69;100.00;100537.59;6234739;28;20128;-87
2023/06/17 01:27:02;;;;;;;9.15;7.65;;;;;;;15.66;100.00;100540.50;6236857;28;20042;-87
2023/06/17 01:30:04;;;;;;;9.40;7.35;;;;;;;15.63;100.00;100531.19;6239906;28;20084;-87
2023/06/17 01:33:06;;;;;;;10.48;7.85;;;;;;;15.62;100.00;100537.38;6236016;28;20045;-87
2023/06/17 01:36:19;;;;;;;8.55;7.47;;;;;;;15.61;100.00;100543.56;6212147;28;20037;-87
2023/06/17 01:39:23;;;;;;;9.10;7.40;;;;;;;15.62;100.00;100539.16;6236554;28;20045;-87
2023/06/17 01:42:31;;;;;;;10.85;7.45;;;;;;;15.56;100.00;100524.13;6241721;28;20040;-87
2023/06/17 01:45:33;;;;;;;9.02;7.40;;;;;;;15.52;100.00;100528.81;6232145;28;20046;-87
2023/06/17 01:48:36;;;;;;;10.10;7.80;;;;;;;15.49;100.00;100526.53;6238923;28;20530;-87
2023/06/17 01:51:37;;;;;;;8.65;6.95;;;;;;;15.43;100.00;100532.38;6235610;28;20045;-87
2023/06/17 01:54:39;;;;;;;8.80;6.90;;;;;;;15.39;100.00;100531.03;6239697;28;20053;-87
2023/06/17 01:57:41;;;;;;;9.18;6.93;;;;;;;15.38;100.00;100531.97;6234131;28;20522;-87
2023/06/17 02:00:43;;;;;;;9.15;7.28;;;;;;;15.32;100.00;100533.41;6234049;28;20037;-87
2023/06/17 02:03:45;;;;;;;9.18;7.22;;;;;;;15.31;100.00;100537.00;6234372;28;20568;-86
2023/06/17 02:06:46;;;;;;;8.70;7.30;;;;;;;15.26;100.00;100529.63;6234666;28;20053;-86
2023/06/17 02:09:48;;;;;;;10.80;7.53;;;;;;;15.19;100.00;100525.19;6236382;28;20045;-86
2023/06/17 02:12:50;;;;;;;11.40;7.47;;;;;;;15.15;100.00;100521.22;6240891;28;20344;-87
2023/06/17 02:15:52;;;;;;;8.07;7.15;;;;;;;15.11;100.00;100523.31;6225927;28;20175;-87
2023/06/17 02:18:54;;;;;;;8.15;6.80;;;;;;;15.04;100.00;100514.47;6235196;28;20040;-87
2023/06/17 02:21:56;;;;;;;9.63;7.50;;;;;;;14.95;100.00;100517.97;6236200;28;20124;-87
2023/06/17 02:24:58;;;;;;;8.68;7.40;;;;;;;14.89;100.00;100516.78;6234022;28;20076;-87
2023/06/17 02:28:00;;;;;;;10.30;7.53;;;;;;;14.88;100.00;100519.53;6237774;28;20230;-87
2023/06/17 02:31:02;;;;;;;10.48;7.45;;;;;;;14.85;100.00;100516.25;6236846;28;20045;-87
2023/06/17 02:34:04;;;;;;;12.90;8.15;;;;;;;14.85;100.00;100520.66;6251909;28;20051;-87
2023/06/17 02:37:07;;;;;;;11.77;7.50;;;;;;;14.83;100.00;100527.78;6238889;28;20068;-87
2023/06/17 02:40:10;;;;;;;14.30;8.43;;;;;;;14.81;100.00;100530.56;6230052;28;20045;-87
2023/06/17 02:43:12;;;;;;;9.95;7.55;;;;;;;14.77;100.00;100528.41;6247777;28;20055;-87
2023/06/17 02:46:14;;;;;;;12.23;7.88;;;;;;;14.74;100.00;100529.50;6233445;28;20069;-87
2023/06/17 02:49:16;;;;;;;9.43;7.53;;;;;;;14.71;100.00;100526.38;6221360;28;20052;-87
2023/06/17 02:52:18;;;;;;;9.60;8.25;;;;;;;14.69;100.00;100518.72;6244656;28;20072;-87
2023/06/17 02:55:20;;;;;;;11.32;7.97;;;;;;;14.70;100.00;100522.13;6240282;28;20049;-87
2023/06/17 02:58:22;;;;;;;9.80;7.88;;;;;;;14.70;100.00;100516.94;6249562;28;20045;-87
2023/06/17 03:01:26;;;;;;;18.85;8.80;;;;;;;14.68;100.00;100519.66;6244418;28;20191;-87
2023/06/17 03:04:34;;;;;;;9.50;8.48;;;;;;;14.71;100.00;100524.59;6249171;28;20124;-87
2023/06/17 03:07:40;;;;;;;14.05;8.65;;;;;;;14.70;100.00;100528.16;6235433;28;20048;-87
2023/06/17 03:10:43;;;;;;;12.63;9.15;;;;;;;14.64;100.00;100526.97;6243313;28;20057;-87
2023/06/17 03:13:47;;;;;;;9.65;8.23;;;;;;;14.64;100.00;100528.75;6235344;28;20069;-87
2023/06/17 03:16:58;;;;;;;;;;;;;;;14.63;100.00;100538.38;6245559;28;20045;-87
2023/06/17 03:20:02;;;;;;;12.45;8.00;;;;;;;14.63;100.00;100530.56;6240759;28;19936;-87
2023/06/17 03:23:04;;;;;;;11.35;8.75;;;;;;;14.64;100.00;100528.75;6213940;28;20503;-87
2023/06/17 03:26:07;;;;;;;12.52;8.18;;;;;;;14.71;100.00;100529.81;6252071;28;20049;-87
2023/06/17 03:29:09;;;;;;;13.77;8.27;;;;;;;14.74;100.00;100524.31;6247337;28;20541;-87
2023/06/17 03:32:11;;;;;;;9.15;7.72;;;;;;;14.83;100.00;100523.41;6230462;28;20076;-87
2023/06/17 03:35:15;;;;;;;12.00;8.27;;;;;;;14.95;100.00;100517.97;6229802;28;20400;-87
2023/06/17 03:38:19;;;;;;;10.25;8.57;;;;;;;15.09;100.00;100520.03;6241188;28;20491;-87
2023/06/17 03:41:26;;;;;;;11.10;8.15;;;;;;;15.34;100.00;100526.25;6250644;28;20411;-87
2023/06/17 03:44:28;;;;;;;13.20;8.75;;;;;;;15.49;100.00;100516.91;6256725;28;20044;-87
2023/06/17 03:47:30;;;;;;;14.35;8.82;;;;;;;15.61;100.00;100527.91;6245100;28;20220;-87
2023/06/17 03:50:33;;;;;;;12.27;8.68;;;;;;;15.75;100.00;100528.34;6257899;28;20124;-87
2023/06/17 03:53:35;;;;;;;13.23;8.98;;;;;;;15.81;100.00;100531.16;6240728;28;20065;-87
2023/06/17 03:56:37;;;;;;;12.40;8.65;;;;;;;15.88;100.00;100524.34;6249939;28;20191;-87
2023/06/17 03:59:39;;;;;;;11.90;9.23;;;;;;;15.96;100.00;100525.38;6247299;28;20490;-87
2023/06/17 04:02:45;;;;;;;11.43;8.85;;;;;;;16.01;100.00;100529.13;6247700;28;20045;-87
2023/06/17 04:05:56;;;;;;;13.88;9.85;;;;;;;16.08;100.00;100524.13;6225843;28;20053;-87
2023/06/17 04:08:58;;;;;;;12.40;9.82;;;;;;;16.09;100.00;100526.53;6257091;28;20033;-87
2023/06/17 04:12:00;;;;;;;13.38;9.63;;;;;;;16.13;100.00;100527.06;6250490;28;20407;-87
2023/06/17 04:15:01;;;;;;;14.07;9.45;;;;;;;16.10;100.00;100522.97;6243571;28;20037;-87
2023/06/17 04:18:03;;;;;;;14.32;9.55;;;;;;;16.18;100.00;100529.22;6240117;28;20586;-87
2023/06/17 04:21:05;;;;;;;11.85;9.55;;;;;;;16.10;100.00;100530.00;6240416;28;20052;-87
2023/06/17 04:24:07;;;;;;;12.52;10.25;;;;;;;16.14;100.00;100531.31;6243601;28;20096;-87
2023/06/17 04:27:10;;;;;;;14.60;10.05;;;;;;;16.22;100.00;100530.50;6241316;28;20049;-87
2023/06/17 04:30:13;;;;;;;13.65;10.13;;;;;;;16.23;100.00;100525.16;6245371;28;20415;-87
2023/06/17 04:33:16;;;;;;;14.80;10.30;;;;;;;16.22;100.00;100535.75;6241759;28;20087;-87
2023/06/17 04:36:18;;;;;;;15.63;10.25;;;;;;;16.30;100.00;100527.94;6240356;28;20038;-87
2023/06/17 04:39:20;;;;;;;12.50;10.75;;;;;;;16.27;100.00;100533.47;6242521;28;20067;-87
2023/06/17 04:42:23;;;;;;;15.40;11.98;;;;;;;16.28;100.00;100535.94;6242441;28;20049;-88
2023/06/17 04:45:25;;;;;;;22.20;13.40;;;;;;;16.28;100.00;100532.50;6219811;28;20634;-87
2023/06/17 04:48:33;;;;;;;22.10;13.13;;;;;;;16.20;100.00;100522.84;6246093;28;20048;-87
2023/06/17 04:51:38;;;;;;;19.58;13.43;;;;;;;16.19;100.00;100530.84;6237843;28;20049;-87
2023/06/17 04:54:40;;;;;;;19.73;12.90;;;;;;;16.14;100.00;100518.25;6243261;28;20547;-87
2023/06/17 04:57:43;;;;;;;20.42;13.93;;;;;;;16.17;100.00;100532.78;6251896;28;20057;-86
2023/06/17 05:00:46;;;;;;;21.13;14.43;;;;;;;16.17;100.00;100528.38;6251701;28;20099;-88
2023/06/17 05:03:51;;;;;;;21.05;14.88;;;;;;;16.22;100.00;100530.50;6238918;28;20058;-88
2023/06/17 05:06:53;;;;;;;23.63;15.57;;;;;;;16.27;100.00;100530.84;6238482;28;20041;-87
2023/06/17 05:09:55;;;;;;;27.40;16.20;;;;;;;16.36;100.00;100527.31;6225142;28;20053;-86
2023/06/17 05:12:57;;;;;;;25.60;16.23;;;;;;;16.49;100.00;100521.63;6235514;28;20064;-87
2023/06/17 05:16:02;;;;;;;28.48;16.92;;;;;;;16.68;100.00;100525.75;6249623;28;20048;-87
2023/06/17 05:19:06;;;;;;;30.13;17.88;;;;;;;16.78;100.00;100532.47;6216508;28;20042;-87
2023/06/17 05:22:07;;;;;;;26.77;17.13;;;;;;;16.94;100.00;100530.88;6215936;28;20073;-87
2023/06/17 05:25:09;;;;;;;27.70;18.13;;;;;;;16.96;100.00;100528.91;6251600;28;20056;-87
2023/06/17 05:28:13;;;;;;;29.48;16.98;;;;;;;16.96;100.00;100524.50;6239401;28;20073;-86
2023/06/17 05:31:15;;;;;;;30.00;17.88;;;;;;;17.01;100.00;100540.50;6256515;28;20144;-87
2023/06/17 05:34:17;;;;;;;29.40;18.23;;;;;;;17.03;100.00;100539.53;6254746;28;20431;-87
2023/06/17 05:37:19;;;;;;;35.20;20.15;;;;;;;17.00;100.00;100545.91;6251308;28;20065;-88
2023/06/17 05:40:21;;;;;;;32.22;19.15;;;;;;;16.96;100.00;100540.19;6242605;28;20038;-87
2023/06/17 05:43:33;;;;;;;29.45;19.25;;;;;;;17.06;100.00;100540.03;6246977;28;20041;-87
2023/06/17 05:46:35;;;;;;;29.30;19.08;;;;;;;17.11;100.00;100547.38;6245684;28;20048;-87
2023/06/17 05:49:39;;;;;;;27.98;18.38;;;;;;;17.19;100.00;100548.22;6249540;28;20133;-86
2023/06/17 05:52:41;;;;;;;30.27;18.75;;;;;;;17.17;100.00;100542.31;6241512;28;20127;-86
2023/06/17 05:55:42;;;;;;;27.30;18.58;;;;;;;17.20;100.00;100546.41;6247549;28;20049;-86
2023/06/17 05:58:45;;;;;;;31.48;18.88;;;;;;;17.22;100.00;100550.50;6247572;28;20611;-86
2023/06/17 06:01:56;;;;;;;30.17;18.67;;;;;;;17.25;100.00;100548.53;6242414;28;20056;-86
2023/06/17 06:04:59;;;;;;;28.88;18.65;;;;;;;17.35;100.00;100559.66;6256495;28;20131;-87
2023/06/17 06:08:01;;;;;;;24.73;16.98;;;;;;;17.30;100.00;100552.28;6247464;28;20056;-87
2023/06/17 06:11:03;;;;;;;28.65;17.58;;;;;;;17.18;100.00;100554.41;6247681;28;20040;-86
2023/06/17 06:14:05;;;;;;;30.95;19.42;;;;;;;17.18;100.00;100564.06;6235107;28;20482;-86
2023/06/17 06:17:07;;;;;;;30.15;19.23;;;;;;;17.27;100.00;100563.09;6250126;28;20056;-87
2023/06/17 06:20:09;;;;;;;27.98;18.25;;;;;;;17.38;100.00;100567.16;6243627;28;20163;-87
2023/06/17 06:23:11;;;;;;;29.75;18.83;;;;;;;17.42;100.00;100561.44;6240177;28;20483;-86
2023/06/17 06:26:13;;;;;;;25.95;17.90;;;;;;;17.55;100.00;100568.78;6247053;28;20057;-86
2023/06/17 06:29:15;;;;;;;28.50;19.55;;;;;;;17.54;100.00;100568.94;6235708;28;20061;-86
2023/06/17 06:32:18;;;;;;;29.58;19.55;;;;;;;17.49;100.00;100573.84;6237248;28;20038;-85
2023/06/17 06:35:20;;;;;;;34.33;20.33;;;;;;;17.47;100.00;100574.03;6239206;28;20054;-87
2023/06/17 06:38:23;;;;;;;27.42;19.38;;;;;;;17.46;100.00;100575.00;6233519;28;20089;-86
2023/06/17 06:41:26;;;;;;;29.10;19.85;;;;;;;17.44;100.00;100580.41;6252931;28;20060;-86
2023/06/17 06:44:55;;;;;;;30.33;18.73;;;;;;;17.49;100.00;100584.31;6237864;28;20053;-87
2023/06/17 06:47:57;;;;;;;31.55;20.25;;;;;;;17.59;100.00;100583.19;6233811;28;20045;-87
2023/06/17 06:51:01;;;;;;;32.63;19.83;;;;;;;17.62;100.00;100584.66;6243572;28;20101;-87
2023/06/17 06:54:05;;;;;;;30.50;20.00;;;;;;;17.61;100.00;100578.63;6238683;28;20845;-86
2023/06/17 06:57:07;;;;;;;30.00;19.40;;;;;;;17.63;100.00;100583.66;6236328;28;20140;-86
2023/06/17 07:00:09;;;;;;;35.03;19.80;;;;;;;17.64;100.00;100578.28;6243137;28;20148;-86
2023/06/17 07:03:13;;;;;;;29.17;18.67;;;;;;;17.70;100.00;100592.50;6246621;28;20068;-87
2023/06/17 07:06:14;;;;;;;34.08;19.73;;;;;;;17.82;100.00;100588.56;6238828;28;20049;-87
2023/06/17 07:09:16;;;;;;;31.65;20.73;;;;;;;17.95;100.00;100590.66;6249399;28;20047;-87
2023/06/17 07:12:18;;;;;;;26.10;18.15;;;;;;;18.20;100.00;100587.97;6249370;28;20499;-87
2023/06/17 07:15:22;;;;;;;29.27;18.77;;;;;;;18.39;100.00;100599.88;6237236;28;20057;-87
2023/06/17 07:18:24;;;;;;;30.77;20.45;;;;;;;18.48;100.00;100598.81;6235311;28;20042;-86
2023/06/17 07:21:26;;;;;;;29.70;19.50;;;;;;;18.56;100.00;100590.94;6245789;28;20046;-87
2023/06/17 07:24:28;;;;;;;28.05;18.48;;;;;;;18.70;100.00;100589.38;6245891;28;20055;-87
2023/06/17 07:27:30;;;;;;;27.70;19.70;;;;;;;18.80;100.00;100587.38;6243125;28;20056;-86
2023/06/17 07:30:33;;;;;;;29.50;19.60;;;;;;;18.75;100.00;100591.50;6241602;28;20051;-87
2023/06/17 07:33:36;;;;;;;28.25;18.83;;;;;;;18.77;100.00;100582.50;6258434;28;20042;-87
2023/06/17 07:36:38;;;;;;;30.27;19.92;;;;;;;18.72;100.00;100585.59;6260083;28;20115;-87
2023/06/17 07:39:40;;;;;;;30.40;19.15;;;;;;;18.51;100.00;100588.84;6236484;28;20060;-87
2023/06/17 07:42:45;;;;;;;26.75;19.08;;;;;;;18.25;100.00;100591.72;6238736;28;20061;-87
2023/06/17 07:45:48;;;;;;;26.33;18.38;;;;;;;18.05;100.00;100590.47;6231793;28;20503;-87
2023/06/17 07:48:50;;;;;;;30.02;18.40;;;;;;;18.00;100.00;100588.38;6241477;28;20310;-88
2023/06/17 07:51:51;;;;;;;28.95;19.60;;;;;;;17.97;100.00;100585.28;6245536;28;20131;-87
2023/06/17 07:54:53;;;;;;;30.95;19.65;;;;;;;17.98;100.00;100592.94;6240279;28;20049;-87
2023/06/17 07:57:55;;;;;;;26.05;19.08;;;;;;;17.91;100.00;100597.22;6236763;28;20042;-87
2023/06/17 08:00:57;;;;;;;29.77;18.73;;;;;;;17.89;100.00;100591.34;6238315;28;20179;-87
2023/06/17 08:03:59;;;;;;;30.58;18.80;;;;;;;17.82;100.00;100598.25;6238474;28;20545;-86
2023/06/17 08:07:01;;;;;;;31.50;19.38;;;;;;;17.81;100.00;100599.19;6236073;28;20403;-87
2023/06/17 08:10:04;;;;;;;25.55;18.08;;;;;;;17.92;100.00;100595.44;6243593;28;20578;-86
2023/06/17 08:13:10;;;;;;;26.27;18.25;;;;;;;17.93;100.00;100605.72;6240184;28;20607;-87
2023/06/17 08:16:12;;;;;;;26.13;18.60;;;;;;;17.84;100.00;100596.28;6248893;28;20084;-87
2023/06/17 08:19:14;;;;;;;27.75;18.70;;;;;;;17.75;100.00;100595.44;6236086;28;20052;-87
2023/06/17 08:22:16;;;;;;;29.45;19.35;;;;;;;17.85;100.00;100593.47;6239031;28;20051;-87
2023/06/17 08:25:18;;;;;;;30.05;18.70;;;;;;;17.97;100.00;100590.50;6235070;28;20053;-87
2023/06/17 08:28:20;;;;;;;27.50;18.15;;;;;;;18.11;100.00;100586.38;6239392;28;20057;-87
2023/06/17 08:31:26;;;;;;;27.88;18.92;;;;;;;18.29;100.00;100590.41;6248728;28;20503;-88
2023/06/17 08:34:31;;;;;;;25.38;18.05;;;;;;;18.39;100.00;100584.97;6252167;28;20041;-88
2023/06/17 08:37:35;;;;;;;26.85;17.50;;;;;;;18.34;100.00;100586.47;6230767;28;20053;-87
2023/06/17 08:40:43;;;;;;;25.33;17.58;;;;;;;18.37;100.00;100591.34;6243452;28;20684;-87
2023/06/17 08:43:48;;;;;;;27.58;18.27;;;;;;;18.49;100.00;100590.81;6245207;28;20045;-87
2023/06/17 08:46:51;;;;;;;25.63;18.08;;;;;;;18.59;100.00;100595.03;6241349;28;20529;-87
2023/06/17 08:49:55;;;;;;;27.88;18.88;;;;;;;18.54;100.00;100587.66;6231885;28;20176;-87
2023/06/17 08:52:58;;;;;;;25.77;18.25;;;;;;;18.56;100.00;100596.19;6205802;28;1211103;-87
2023/06/17 08:56:00;;;;;;;22.77;16.00;;;;;;;18.56;100.00;100595.34;6247510;28;20064;-87
2023/06/17 08:59:02;;;;;;;20.45;15.45;;;;;;;18.62;100.00;100589.44;6258000;28;20068;-87
2023/06/17 09:02:05;;;;;;;20.33;15.43;;;;;;;18.58;100.00;100594.19;6249773;28;20525;-87
2023/06/17 09:05:08;;;;;;;20.60;15.68;;;;;;;18.79;100.00;100600.69;6252936;28;20084;-87
2023/06/17 09:08:10;;;;;;;21.90;15.80;;;;;;;18.95;100.00;100595.31;6241071;28;20143;-88
2023/06/17 09:11:12;;;;;;;22.70;16.52;;;;;;;19.04;100.00;100601.34;6252448;28;20041;-86
2023/06/17 09:14:16;;;;;;;25.73;17.52;;;;;;;19.01;100.00;100589.38;6250062;28;20053;-87
2023/06/17 09:17:32;;;;;;;24.10;16.15;;;;;;;19.04;100.00;100594.28;6249745;28;20053;-88
2023/06/17 09:20:34;;;;;;;23.20;16.98;;;;;;;19.05;100.00;100593.28;6241030;28;20427;-89
2023/06/17 09:23:36;;;;;;;26.88;17.52;;;;;;;19.09;100.00;100591.94;6253415;28;20040;-89
2023/06/17 09:26:43;;;;;;;25.58;17.73;;;;;;;19.18;100.00;100591.88;6244241;28;20462;-87
2023/06/17 09:29:48;;;;;;;25.85;17.58;;;;;;;19.22;100.00;100587.91;6245023;28;20041;-88
2023/06/17 09:32:51;;;;;;;23.75;16.83;;;;;;;19.30;100.00;100586.06;6246042;28;20084;-90
2023/06/17 09:36:04;;;;;;;21.63;16.67;;;;;;;19.37;100.00;100581.72;6238818;28;20138;-90
2023/06/17 09:39:08;;;;;;;26.65;17.50;;;;;;;19.45;100.00;100586.09;6234242;28;20072;-89
2023/06/17 09:42:12;;;;;;;29.20;17.17;;;;;;;19.51;100.00;100598.50;6239424;28;20041;-89
2023/06/17 09:45:24;;;;;;;28.75;18.65;;;;;;;19.55;100.00;100588.44;6243841;28;20491;-89
2023/06/17 09:48:32;;;;;;;24.20;16.85;;;;;;;19.61;100.00;100581.69;6256338;28;20044;-89
2023/06/17 09:51:42;;;;;;;23.45;17.20;;;;;;;19.67;100.00;100584.41;6241109;28;20133;-90
2023/06/17 09:54:45;;;;;;;26.07;18.53;;;;;;;19.80;100.00;100583.81;6237194;28;20748;-89
2023/06/17 09:57:53;;;;;;;25.80;17.42;;;;;;;19.79;100.00;100576.94;6237993;28;20052;-90
2023/06/17 10:01:00;;;;;;;22.95;16.63;;;;;;;19.85;100.00;100588.50;6238842;28;20046;-90
2023/06/17 10:04:03;;;;;;;24.10;17.02;;;;;;;19.97;100.00;100580.03;6236049;28;20503;-90
2023/06/17 10:07:06;;;;;;;25.48;17.27;;;;;;;20.01;100.00;100589.16;6253618;28;20496;-90
2023/06/17 10:10:11;;;;;;;24.10;18.15;;;;;;;20.07;100.00;100578.91;6243419;28;20037;-90
2023/06/17 10:13:17;;;;;;;24.70;17.45;;;;;;;20.14;100.00;100588.50;6241696;28;20137;-90
2023/06/17 10:16:21;;;;;;;24.00;18.20;;;;;;;20.28;100.00;100593.97;6238399;28;20037;-89
2023/06/17 10:19:27;;;;;;;23.33;16.88;;;;;;;20.25;100.00;100586.41;6238388;28;20593;-90
2023/06/17 10:22:29;;;;;;;26.20;18.42;;;;;;;20.26;100.00;100578.34;6235782;28;20057;-91
2023/06/17 10:25:32;;;;;;;28.02;18.60;;;;;;;20.26;100.00;100565.22;6231687;28;20136;-90
2023/06/17 10:28:52;;;;;;;22.88;17.15;;;;;;;20.45;100.00;100576.97;6239181;28;20123;-88
2023/06/17 10:31:54;;;;;;;30.00;18.23;;;;;;;20.49;100.00;100578.22;6253543;28;20072;-88
2023/06/17 10:35:05;;;;;;;26.42;18.27;;;;;;;20.43;100.00;100564.00;6246292;28;20040;-90
2023/06/17 10:38:08;;;;;;;26.13;18.52;;;;;;;20.54;100.00;100564.53;6243865;28;20630;-91
2023/06/17 10:41:11;;;;;;;24.05;16.65;;;;;;;20.68;100.00;100568.97;6239979;28;20045;-91
2023/06/17 10:44:42;;;;;;;27.02;18.90;;;;;;;20.73;100.00;100563.97;6252440;28;20041;-90
2023/06/17 10:47:44;;;;;;;25.85;18.88;;;;;;;20.89;100.00;100569.97;6256364;28;20049;-90
2023/06/17 10:50:51;;;;;;;28.70;19.52;;;;;;;21.02;100.00;100560.41;6245158;28;20042;-90
2023/06/17 10:53:53;;;;;;;22.00;16.75;;;;;;;21.12;100.00;100565.34;6229020;28;20388;-90
2023/06/17 10:56:55;;;;;;;25.13;17.88;;;;;;;21.21;100.00;100560.75;6243493;28;20047;-90
2023/06/17 11:00:06;;;;;;;26.58;19.27;;;;;;;21.33;100.00;100558.41;6249971;28;20375;-91
2023/06/17 11:03:09;;;;;;;25.58;17.58;;;;;;;21.40;100.00;100556.69;6241247;28;20431;-90
2023/06/17 11:06:13;;;;;;;25.35;17.50;;;;;;;21.56;100.00;100556.38;6247768;28;20076;-90
2023/06/17 11:09:15;;;;;;;26.58;18.80;;;;;;;21.55;100.00;100551.31;6236082;28;20056;-89
2023/06/17 11:12:17;;;;;;;28.63;18.60;;;;;;;21.45;100.00;100547.19;6241918;28;20403;-90
2023/06/17 11:15:21;;;;;;;23.38;17.75;;;;;;;21.62;100.00;100552.97;6243776;28;20048;-90
2023/06/17 11:18:23;;;;;;;30.45;19.88;;;;;;;21.79;100.00;100545.59;6239691;28;20231;-90
2023/06/17 11:21:24;;;;;;;25.42;17.80;;;;;;;21.92;100.00;100544.84;6236488;28;20076;-90
2023/06/17 11:24:26;;;;;;;28.20;17.80;;;;;;;22.00;100.00;100539.41;6239766;28;20044;-90
2023/06/17 11:27:31;;;;;;;24.15;17.15;;;;;;;22.10;100.00;100545.13;6229935;28;20124;-90
2023/06/17 11:30:33;;;;;;;24.27;17.80;;;;;;;22.09;100.00;100538.22;6236639;28;20550;-90
2023/06/17 11:33:36;;;;;;;30.35;17.85;;;;;;;22.18;100.00;100536.22;6225667;28;20053;-90
2023/06/17 11:36:41;;;;;;;24.38;16.10;;;;;;;22.35;100.00;100542.81;6235284;28;20048;-91
2023/06/17 11:39:43;;;;;;;24.67;16.33;;;;;;;22.40;100.00;100546.69;6237515;28;20068;-90
2023/06/17 11:42:46;;;;;;;22.35;17.05;;;;;;;22.54;100.00;100540.44;6241253;28;20507;-91
2023/06/17 11:45:48;;;;;;;20.83;16.95;;;;;;;22.75;100.00;100531.53;6242567;28;20406;-91
2023/06/17 11:48:50;;;;;;;18.88;14.85;;;;;;;22.96;100.00;100535.84;6234078;28;20041;-91
2023/06/17 11:51:52;;;;;;;20.38;14.90;;;;;;;23.09;100.00;100535.06;6246130;28;20083;-91
2023/06/17 11:54:54;;;;;;;19.33;15.05;;;;;;;23.19;100.00;100527.53;6237207;28;20160;-91
2023/06/17 11:57:58;;;;;;;18.48;14.13;;;;;;;23.45;100.00;100526.66;6225718;28;20936;-91
2023/06/17 12:01:00;;;;;;;17.90;15.15;;;;;;;23.74;100.00;100530.72;6225290;28;20172;-90
2023/06/17 12:04:03;;;;;;;21.88;15.48;;;;;;;24.04;100.00;100525.72;6233740;28;20113;-91
2023/06/17 12:07:06;;;;;;;21.02;15.82;;;;;;;24.11;100.00;100530.19;6241176;28;20041;-91
2023/06/17 12:10:11;;;;;;;19.08;15.65;;;;;;;24.24;100.00;100528.28;6248828;28;20052;-91
2023/06/17 12:13:13;;;;;;;17.38;14.52;;;;;;;24.18;100.00;100528.31;6222840;28;20211;-91
2023/06/17 12:16:23;;;;;;;15.57;13.35;;;;;;;24.33;100.00;100522.75;6249273;28;20060;-91
2023/06/17 12:19:25;;;;;;;14.80;12.30;;;;;;;24.52;100.00;100523.69;6239086;28;20052;-91
2023/06/17 12:22:27;;;;;;;16.58;13.52;;;;;;;24.52;100.00;100516.56;6243193;28;20514;-91
2023/06/17 12:25:34;;;;;;;16.80;12.80;;;;;;;24.53;100.00;100520.84;6243188;28;20077;-91
2023/06/17 12:28:36;;;;;;;15.52;12.88;;;;;;;24.78;100.00;100522.72;6234164;28;20038;-91
2023/06/17 12:31:38;;;;;;;16.17;12.73;;;;;;;25.03;100.00;100518.22;6226435;28;20041;-91
2023/06/17 12:34:39;;;;;;;14.60;11.20;;;;;;;25.41;100.00;100519.94;6235782;28;20041;-92
2023/06/17 12:37:41;;;;;;;14.70;12.20;;;;;;;25.52;100.00;100508.63;6238312;28;20503;-92
2023/06/17 12:40:43;;;;;;;14.23;12.73;;;;;;;25.83;100.00;100516.63;6235141;28;20378;-92
2023/06/17 12:43:45;;;;;;;13.32;11.95;;;;;;;25.98;100.00;100503.81;6228299;28;20078;-91
2023/06/17 12:46:48;;;;;;;13.55;11.60;;;;;;;25.95;100.00;100499.78;6229514;28;20053;-92
2023/06/17 12:49:50;;;;;;;14.95;12.07;;;;;;;26.03;100.00;100492.56;6228356;28;20455;-92
2023/06/17 12:52:54;;;;;;;15.02;12.10;;;;;;;26.05;100.00;100488.63;6238317;28;20128;-93
2023/06/17 12:55:56;;;;;;;14.18;12.18;;;;;;;26.18;100.00;100498.25;6242143;28;20041;-92
2023/06/17 12:58:57;;;;;;;13.15;11.35;;;;;;;26.31;100.00;100494.59;6236662;28;20066;-89
2023/06/17 13:01:59;;;;;;;14.82;10.45;;;;;;;26.50;100.00;100487.41;6240313;28;20487;-90
2023/06/17 13:05:01;;;;;;;12.27;10.55;;;;;;;26.56;100.00;100483.88;6234582;28;20041;-92
2023/06/17 13:08:03;;;;;;;12.02;9.98;;;;;;;26.67;98.53;100483.06;6238075;28;20546;-92
2023/06/17 13:11:05;;;;;;;12.48;10.55;;;;;;;26.68;97.65;100470.59;6239475;28;20452;-92
2023/06/17 13:14:07;;;;;;;13.45;10.40;;;;;;;26.82;100.00;100472.00;6226707;28;20412;-91
2023/06/17 13:17:09;;;;;;;12.68;10.85;;;;;;;27.01;99.07;100470.06;6226948;28;20038;-89
2023/06/17 13:20:11;;;;;;;12.45;11.15;;;;;;;27.10;97.66;100470.50;6248787;28;20044;-91
2023/06/17 13:23:13;;;;;;;14.38;10.52;;;;;;;27.18;99.19;100467.50;6239128;28;20049;-91
2023/06/17 13:26:21;;;;;;;16.60;10.93;;;;;;;27.48;100.00;100473.50;6225169;28;20049;-91
2023/06/17 13:29:23;;;;;;;12.88;9.88;;;;;;;27.63;90.30;100465.03;6240981;28;20072;-91
2023/06/17 13:32:26;;;;;;;11.90;9.93;;;;;;;27.66;85.21;100467.22;6236855;28;20049;-91
2023/06/17 13:35:27;;;;;;;10.73;9.60;;;;;;;27.78;85.75;100461.88;6227338;28;20530;-90
2023/06/17 13:38:29;;;;;;;9.55;8.65;;;;;;;27.68;85.15;100448.38;6229101;28;20046;-92
2023/06/17 13:41:31;;;;;;;10.35;8.75;;;;;;;27.59;74.84;100460.41;6238052;28;20038;-91
2023/06/17 13:44:34;;;;;;;10.63;8.52;;;;;;;27.76;74.75;100452.50;6230873;28;20076;-92
2023/06/17 13:47:36;;;;;;;8.95;7.18;;;;;;;27.90;69.70;100454.69;6240538;28;20181;-92
2023/06/17 13:50:38;;;;;;;9.80;8.68;;;;;;;28.12;64.33;100449.50;6236104;28;20499;-92